Time;durP1;ratioP1;P1;durP2;ratioP2;P2;SDS_P1;SDS_P2;PMS_P1;PMS_P2;Temp;Humidity;BMP_temperature;BMP_pressure;BME280_temperature;BME280_humidity;BME280_pressure;Samples;Min_cycle;Max_cycle;Signal;HPM_P1;HPM_P2
2021/12/11 00:01:42;;;;;;;4.60;2.73;;;2.30;99.90;;;;;;5049952;28;20453;-94
2021/12/11 00:04:14;;;;;;;0.90;0.90;;;2.30;99.90;;;;;;5053103;28;20443;-94
2021/12/11 00:06:44;;;;;;;0.80;0.70;;;2.30;99.90;;;;;;5052401;28;20423;-95
2021/12/11 00:09:18;;;;;;;3.73;2.70;;;2.30;99.90;;;;;;5064604;28;20612;-94
2021/12/11 00:11:48;;;;;;;0.90;0.90;;;2.30;99.90;;;;;;5066731;28;20431;-94
2021/12/11 00:14:14;;;;;;;1.53;1.43;;;2.20;99.90;;;;;;5045083;28;21132;-94
2021/12/11 00:16:40;;;;;;;0.90;0.90;;;2.20;99.90;;;;;;5037275;28;20476;-94
2021/12/11 00:19:13;;;;;;;1.33;1.23;;;2.20;99.90;;;;;;5052919;28;20802;-95
2021/12/11 00:21:40;;;;;;;1.30;1.20;;;2.20;99.90;;;;;;5028156;28;20957;-94
2021/12/11 00:24:15;;;;;;;1.67;1.37;;;2.20;99.90;;;;;;5051669;28;20462;-93
2021/12/11 00:26:50;;;;;;;3.00;2.80;;;2.20;99.90;;;;;;5053257;28;20793;-94
2021/12/11 00:29:21;;;;;;;2.37;2.00;;;2.30;99.90;;;;;;5044626;28;20483;-93
2021/12/11 00:31:50;;;;;;;1.73;1.63;;;2.30;99.90;;;;;;5053501;28;20499;-94
2021/12/11 00:34:18;;;;;;;0.80;0.80;;;2.30;99.90;;;;;;5054302;28;20522;-95
2021/12/11 00:36:54;;;;;;;1.83;1.70;;;2.30;99.90;;;;;;5037703;28;20992;-92
2021/12/11 00:39:20;;;;;;;5.90;1.67;;;2.20;99.90;;;;;;5055568;28;20440;-93
2021/12/11 00:41:52;;;;;;;2.17;1.97;;;2.20;99.90;;;;;;5055758;28;20463;-94
2021/12/11 00:44:33;;;;;;;1.30;1.20;;;2.10;99.90;;;;;;5052589;28;20441;-95
2021/12/11 00:47:14;;;;;;;1.10;1.00;;;2.10;99.90;;;;;;5038152;28;20444;-95
2021/12/11 00:49:51;;;;;;;1.30;1.20;;;2.10;99.90;;;;;;5044836;28;20438;-94
2021/12/11 00:52:17;;;;;;;3.60;3.30;;;2.10;99.90;;;;;;5046389;28;20489;-94
2021/12/11 00:54:45;;;;;;;0.90;0.90;;;2.10;99.90;;;;;;5055301;28;20481;-95
2021/12/11 00:57:13;;;;;;;1.00;0.90;;;2.10;99.90;;;;;;5055141;28;20456;-93
2021/12/11 00:59:39;;;;;;;1.20;1.10;;;2.20;99.90;;;;;;5053825;28;20539;-96
2021/12/11 01:02:06;;;;;;;1.23;1.13;;;2.20;99.90;;;;;;5052788;28;20432;-94
2021/12/11 01:04:41;;;;;;;1.00;0.90;;;2.20;99.90;;;;;;5047167;28;20444;-94
2021/12/11 01:07:19;;;;;;;3.17;2.33;;;2.20;99.90;;;;;;5041156;28;20414;-94
2021/12/11 01:10:00;;;;;;;1.10;1.00;;;2.20;99.90;;;;;;5036719;28;20451;-94
2021/12/11 01:12:53;;;;;;;0.80;0.80;;;2.20;99.90;;;;;;5056249;28;20444;-95
2021/12/11 01:15:36;;;;;;;1.27;1.17;;;2.20;99.90;;;;;;5054522;28;20461;-95
2021/12/11 01:21:00;;;;;;;2.80;1.30;;;2.30;99.90;;;;;;5055901;28;20535;-94
2021/12/11 01:26:01;;;;;;;3.73;3.50;;;2.30;99.90;;;;;;5052968;28;20448;-94
2021/12/11 01:28:27;;;;;;;3.87;1.90;;;2.30;99.90;;;;;;5053938;28;20425;-95
2021/12/11 01:30:54;;;;;;;1.00;0.90;;;2.30;99.90;;;;;;5055561;28;20516;-95
2021/12/11 01:33:22;;;;;;;1.67;1.57;;;2.30;99.90;;;;;;5047003;28;20176;-94
2021/12/11 01:35:47;;;;;;;0.80;0.80;;;2.30;99.90;;;;;;5048275;28;20522;-94
2021/12/11 01:38:20;;;;;;;1.10;1.00;;;2.30;99.90;;;;;;5055193;28;20432;-95
2021/12/11 01:40:49;;;;;;;0.90;0.80;;;2.30;99.90;;;;;;5054603;28;20198;-94
2021/12/11 01:43:16;;;;;;;4.93;3.03;;;2.30;99.90;;;;;;5055795;28;20520;-93
2021/12/11 01:45:45;;;;;;;0.83;0.83;;;2.30;99.90;;;;;;5055518;28;20433;-93
2021/12/11 01:48:14;;;;;;;3.53;2.07;;;2.30;99.90;;;;;;5049446;28;20496;-94
2021/12/11 01:50:43;;;;;;;0.80;0.70;;;2.30;99.90;;;;;;5037759;28;20468;-94
2021/12/11 01:53:12;;;;;;;0.80;0.80;;;2.30;99.90;;;;;;5053090;28;20475;-95
2021/12/11 01:55:45;;;;;;;2.30;1.77;;;2.30;99.90;;;;;;5055573;28;20465;-94
2021/12/11 01:58:14;;;;;;;2.07;1.97;;;2.30;99.90;;;;;;5037689;28;20491;-95
2021/12/11 02:00:45;;;;;;;2.30;2.20;;;2.30;99.90;;;;;;5036872;28;20443;-94
2021/12/11 02:03:16;;;;;;;0.80;0.80;;;2.30;99.90;;;;;;5050643;28;20457;-94
2021/12/11 02:05:43;;;;;;;3.63;1.53;;;2.30;99.90;;;;;;5046382;28;20429;-95
2021/12/11 02:08:17;;;;;;;2.00;1.90;;;2.30;99.90;;;;;;5054823;28;20463;-93
2021/12/11 02:10:56;;;;;;;0.80;0.80;;;2.30;99.90;;;;;;5046750;28;20433;-95
2021/12/11 02:13:37;;;;;;;2.10;2.00;;;2.40;99.90;;;;;;5023293;28;20524;-94
2021/12/11 02:16:04;;;;;;;1.63;1.53;;;2.30;99.90;;;;;;5054663;28;20508;-94
2021/12/11 02:18:36;;;;;;;1.00;0.90;;;2.30;99.90;;;;;;5029446;28;20433;-94
2021/12/11 02:21:04;;;;;;;0.80;0.70;;;2.30;99.90;;;;;;5055209;28;20444;-94
2021/12/11 02:23:30;;;;;;;1.00;0.90;;;2.30;99.90;;;;;;5037041;28;20445;-94
2021/12/11 02:26:01;;;;;;;2.20;1.97;;;2.30;99.90;;;;;;5037347;28;20440;-94
2021/12/11 02:28:43;;;;;;;4.17;3.77;;;2.30;99.90;;;;;;5031481;28;20194;-93
2021/12/11 02:31:29;;;;;;;1.17;1.07;;;2.20;99.90;;;;;;5054843;28;20597;-95
2021/12/11 02:34:10;;;;;;;0.80;0.80;;;2.30;99.90;;;;;;5036774;28;20461;-94
2021/12/11 02:36:46;;;;;;;0.80;0.80;;;2.20;99.90;;;;;;5037121;28;20489;-94
2021/12/11 02:39:27;;;;;;;2.60;2.40;;;2.20;99.90;;;;;;5051084;28;20861;-94
2021/12/11 02:42:27;;;;;;;0.90;0.90;;;2.20;99.90;;;;;;5051155;28;20457;-94
2021/12/11 02:44:58;;;;;;;0.80;0.80;;;2.20;99.90;;;;;;5052364;28;20437;-95
2021/12/11 02:47:29;;;;;;;2.30;2.20;;;2.20;99.90;;;;;;5054279;28;20416;-94
2021/12/11 02:50:07;;;;;;;0.80;0.80;;;2.20;99.90;;;;;;5053954;28;20444;-94
2021/12/11 02:52:43;;;;;;;0.80;0.80;;;2.30;99.90;;;;;;5049961;28;20461;-94
2021/12/11 02:55:11;;;;;;;1.00;0.90;;;2.30;99.90;;;;;;5046058;28;20469;-93
2021/12/11 02:57:50;;;;;;;1.73;1.63;;;2.30;99.90;;;;;;5053690;28;20439;-95
2021/12/11 03:00:20;;;;;;;3.53;2.07;;;2.30;99.90;;;;;;5047168;28;20457;-95
2021/12/11 03:02:59;;;;;;;1.00;0.90;;;2.30;99.90;;;;;;5034511;28;20463;-94
2021/12/11 03:05:34;;;;;;;1.37;1.27;;;2.30;99.90;;;;;;5036077;28;20443;-94
2021/12/11 03:08:01;;;;;;;2.60;2.40;;;2.20;99.90;;;;;;5043524;28;20946;-94
2021/12/11 03:10:27;;;;;;;0.80;0.80;;;2.30;99.90;;;;;;5027437;28;20433;-94
2021/12/11 03:12:55;;;;;;;1.57;1.47;;;2.30;99.90;;;;;;5039854;28;20436;-94
2021/12/11 03:15:21;;;;;;;8.20;3.07;;;2.30;99.90;;;;;;5053576;28;20465;-94
2021/12/11 03:17:46;;;;;;;1.47;1.37;;;2.30;99.90;;;;;;5035674;28;20480;-94
2021/12/11 03:20:15;;;;;;;0.90;0.90;;;2.30;99.90;;;;;;5053926;28;20461;-95
2021/12/11 03:22:43;;;;;;;1.97;1.87;;;2.30;99.90;;;;;;5054022;28;20253;-94
2021/12/11 03:25:12;;;;;;;1.30;1.20;;;2.30;99.90;;;;;;5053360;28;20437;-93
2021/12/11 03:27:38;;;;;;;7.23;3.37;;;2.30;99.90;;;;;;5043437;28;20520;-94
2021/12/11 03:30:08;;;;;;;1.43;1.33;;;2.30;99.90;;;;;;5035663;28;20528;-94
2021/12/11 03:32:35;;;;;;;2.10;1.90;;;2.30;99.90;;;;;;5020551;28;20471;-94
2021/12/11 03:35:02;;;;;;;4.60;1.60;;;2.30;99.90;;;;;;5029477;28;20985;-95
2021/12/11 03:37:27;;;;;;;1.10;1.00;;;2.30;99.90;;;;;;5035565;28;20452;-94
2021/12/11 03:39:55;;;;;;;2.03;1.93;;;2.20;99.90;;;;;;5049841;28;20429;-94
2021/12/11 03:42:30;;;;;;;0.80;0.70;;;2.20;99.90;;;;;;5053085;28;20197;-94
2021/12/11 03:44:56;;;;;;;1.23;1.13;;;2.20;99.90;;;;;;5053087;28;20429;-94
2021/12/11 03:47:35;;;;;;;1.77;1.67;;;2.20;99.90;;;;;;5035784;28;20533;-95
2021/12/11 03:50:03;;;;;;;2.60;1.33;;;2.20;99.90;;;;;;5052337;28;20483;-94
2021/12/11 03:52:29;;;;;;;2.50;2.30;;;2.20;99.90;;;;;;5036152;28;20489;-94
2021/12/11 03:54:54;;;;;;;1.00;0.90;;;2.20;99.90;;;;;;5053233;28;20534;-95
2021/12/11 03:57:24;;;;;;;0.80;0.80;;;2.10;99.90;;;;;;5051883;28;20217;-94
2021/12/11 03:59:52;;;;;;;3.23;3.07;;;2.20;99.90;;;;;;5030852;28;20833;-95
2021/12/11 04:02:24;;;;;;;1.33;1.23;;;2.20;99.90;;;;;;5026075;28;20422;-95
2021/12/11 04:04:58;;;;;;;1.63;1.53;;;2.20;99.90;;;;;;5046256;28;20496;-94
2021/12/11 04:07:28;;;;;;;0.90;0.90;;;2.20;99.90;;;;;;5031832;28;20529;-94
2021/12/11 04:09:54;;;;;;;1.93;1.20;;;2.10;99.90;;;;;;5035072;28;20433;-94
2021/12/11 04:12:21;;;;;;;1.00;0.90;;;2.10;99.90;;;;;;5062471;28;20457;-94
2021/12/11 04:14:49;;;;;;;1.37;1.27;;;2.10;99.90;;;;;;5032738;28;20805;-94
2021/12/11 04:17:18;;;;;;;1.20;1.10;;;2.10;99.90;;;;;;5035347;28;20441;-94
2021/12/11 04:19:45;;;;;;;0.83;0.80;;;2.10;99.90;;;;;;5017043;28;20425;-93
2021/12/11 04:22:12;;;;;;;1.00;0.90;;;2.10;99.90;;;;;;5035689;28;20521;-94
2021/12/11 04:24:39;;;;;;;1.53;1.43;;;2.10;99.90;;;;;;5029985;28;20480;-95
2021/12/11 04:27:07;;;;;;;1.73;1.43;;;2.10;99.90;;;;;;5035310;28;20771;-94
2021/12/11 04:29:33;;;;;;;0.80;0.80;;;2.10;99.90;;;;;;5048778;28;20430;-94
2021/12/11 04:32:01;;;;;;;1.23;1.13;;;2.10;99.90;;;;;;5052701;28;20437;-94
2021/12/11 04:34:28;;;;;;;0.80;0.80;;;2.10;99.90;;;;;;5047574;28;20433;-95
2021/12/11 04:37:00;;;;;;;5.43;2.60;;;2.10;99.90;;;;;;5031495;28;20483;-94
2021/12/11 04:39:29;;;;;;;0.80;0.80;;;2.00;99.90;;;;;;5050595;28;20421;-95
2021/12/11 04:42:07;;;;;;;1.27;1.17;;;2.00;99.90;;;;;;5049453;28;20452;-93
2021/12/11 04:44:42;;;;;;;1.83;1.73;;;2.00;99.90;;;;;;5052409;28;20512;-94
2021/12/11 04:47:15;;;;;;;1.63;1.53;;;2.00;99.90;;;;;;5027055;28;20952;-94
2021/12/11 04:49:56;;;;;;;4.07;2.03;;;2.10;99.90;;;;;;5052393;28;20434;-93
2021/12/11 04:52:45;;;;;;;3.90;1.53;;;2.10;99.90;;;;;;5038515;28;20468;-94
2021/12/11 04:55:34;;;;;;;1.00;0.90;;;2.10;99.90;;;;;;5043850;28;20475;-94
2021/12/11 05:08:59;;;;;;;1.97;1.87;;;2.00;99.90;;;;;;5034375;28;20430;-95
2021/12/11 05:11:14;;;;;;;4.33;4.03;;;2.10;99.90;;;;;;5050227;28;20441;-94
2021/12/11 05:13:40;;;;;;;1.60;1.50;;;2.00;99.90;;;;;;5043082;28;20476;-95
2021/12/11 05:16:09;;;;;;;1.17;1.07;;;2.00;99.90;;;;;;5054473;28;20645;-94
2021/12/11 05:18:38;;;;;;;0.80;0.80;;;2.00;99.90;;;;;;5054436;28;20918;-94
2021/12/11 05:21:17;;;;;;;3.43;2.43;;;2.00;99.90;;;;;;5054160;28;20530;-95
2021/12/11 05:23:44;;;;;;;1.60;1.50;;;2.00;99.90;;;;;;5055493;28;20437;-94
2021/12/11 05:26:10;;;;;;;2.70;2.50;;;2.00;99.90;;;;;;5049176;28;20471;-94
2021/12/11 05:28:36;;;;;;;1.63;1.53;;;2.00;99.90;;;;;;5055410;28;20495;-94
2021/12/11 05:31:06;;;;;;;3.33;2.27;;;2.10;99.90;;;;;;5038590;28;20198;-94
2021/12/11 05:33:31;;;;;;;1.60;1.50;;;2.10;99.90;;;;;;5044678;28;20206;-94
2021/12/11 05:35:57;;;;;;;3.33;2.73;;;2.00;99.90;;;;;;5051635;28;20523;-94
2021/12/11 05:38:25;;;;;;;1.60;1.50;;;2.00;99.90;;;;;;5053830;28;20642;-95
2021/12/11 05:40:58;;;;;;;1.20;1.10;;;2.00;99.90;;;;;;5053607;28;20213;-94
2021/12/11 05:43:25;;;;;;;2.53;2.43;;;2.00;99.90;;;;;;5024453;28;20429;-95
2021/12/11 05:45:52;;;;;;;1.10;1.00;;;2.00;99.90;;;;;;5035074;28;20535;-94
2021/12/11 05:48:17;;;;;;;1.17;1.07;;;1.90;99.90;;;;;;5042989;28;20446;-94
2021/12/11 05:50:47;;;;;;;0.93;0.83;;;1.90;99.90;;;;;;5052558;28;20451;-96
2021/12/11 05:53:14;;;;;;;3.97;2.17;;;1.80;99.90;;;;;;5055475;28;20198;-94
2021/12/11 05:55:41;;;;;;;1.17;1.10;;;1.80;99.90;;;;;;5053669;28;20477;-94
2021/12/11 05:58:11;;;;;;;1.00;0.90;;;1.70;99.90;;;;;;5055215;28;20440;-95
2021/12/11 06:00:49;;;;;;;1.10;1.00;;;1.60;99.90;;;;;;5026483;28;20841;-95
2021/12/11 06:03:16;;;;;;;1.37;1.27;;;1.60;99.90;;;;;;5053504;28;20468;-95
2021/12/11 06:05:42;;;;;;;1.00;0.90;;;1.50;99.90;;;;;;5052730;28;20433;-96
2021/12/11 06:08:09;;;;;;;0.80;0.80;;;1.50;99.90;;;;;;5055575;28;20440;-96
2021/12/11 06:10:36;;;;;;;1.60;1.50;;;1.50;99.90;;;;;;5068314;28;20437;-96
2021/12/11 06:13:03;;;;;;;4.03;1.50;;;1.50;99.90;;;;;;5064881;28;20499;-96
2021/12/11 06:15:30;;;;;;;1.00;0.90;;;1.40;99.90;;;;;;5049470;28;20456;-96
2021/12/11 06:17:56;;;;;;;1.10;1.00;;;1.40;99.90;;;;;;5027245;28;20452;-96
2021/12/11 06:20:26;;;;;;;1.10;1.00;;;1.40;99.90;;;;;;5038931;28;20433;-96
2021/12/11 06:22:53;;;;;;;4.53;2.40;;;1.30;99.90;;;;;;5063810;28;20506;-96
2021/12/11 06:25:29;;;;;;;0.80;0.80;;;1.30;99.90;;;;;;5052080;28;20440;-96
2021/12/11 06:27:55;;;;;;;0.90;0.90;;;1.30;99.90;;;;;;5058481;28;20417;-96
2021/12/11 06:30:21;;;;;;;0.80;0.80;;;1.20;99.90;;;;;;5037849;28;20440;-96
2021/12/11 06:32:48;;;;;;;7.03;1.37;;;1.30;99.90;;;;;;5055339;28;20187;-96
2021/12/11 06:35:29;;;;;;;2.50;2.40;;;1.30;99.90;;;;;;5049612;28;20469;-96
2021/12/11 06:37:55;;;;;;;1.00;0.90;;;1.30;99.90;;;;;;5046493;28;20499;-96
2021/12/11 06:40:24;;;;;;;3.17;1.67;;;1.20;99.90;;;;;;5052133;28;20430;-95
2021/12/11 06:42:51;;;;;;;0.80;0.80;;;1.20;99.90;;;;;;5054377;28;20441;-94
2021/12/11 06:45:18;;;;;;;1.40;1.30;;;1.10;99.90;;;;;;5036631;28;20508;-95
2021/12/11 06:47:43;;;;;;;1.00;0.90;;;1.10;99.90;;;;;;5030783;28;20492;-95
2021/12/11 06:50:09;;;;;;;1.20;1.10;;;1.10;99.90;;;;;;5046439;28;20936;-95
2021/12/11 06:52:35;;;;;;;1.10;1.00;;;1.20;99.90;;;;;;5050559;28;20722;-96
2021/12/11 06:55:02;;;;;;;0.80;0.70;;;1.20;99.90;;;;;;5025201;28;20252;-95
2021/12/11 06:57:27;;;;;;;1.00;0.90;;;1.20;99.90;;;;;;5041922;28;20429;-94
2021/12/11 06:59:53;;;;;;;0.80;0.70;;;1.20;99.90;;;;;;5037522;28;20522;-96
2021/12/11 07:02:20;;;;;;;1.00;0.90;;;1.30;99.90;;;;;;5050631;28;20195;-94
2021/12/11 07:04:48;;;;;;;1.13;1.03;;;1.30;99.90;;;;;;5054012;28;20297;-96
2021/12/11 07:07:20;;;;;;;0.80;0.80;;;1.30;99.90;;;;;;5045792;28;20414;-95
2021/12/11 07:09:46;;;;;;;0.80;0.80;;;1.40;99.90;;;;;;5053724;28;20515;-95
2021/12/11 07:12:12;;;;;;;0.90;0.90;;;1.40;99.90;;;;;;5044032;28;20433;-96
2021/12/11 07:14:38;;;;;;;1.20;1.10;;;1.40;99.90;;;;;;5043604;28;20437;-95
2021/12/11 07:17:06;;;;;;;1.37;1.27;;;1.30;99.90;;;;;;5052155;28;21042;-95
2021/12/11 07:19:31;;;;;;;1.27;1.17;;;1.30;99.90;;;;;;5049224;28;20446;-94
2021/12/11 07:21:57;;;;;;;1.23;1.17;;;1.40;99.90;;;;;;5052240;28;20482;-94
2021/12/11 07:24:30;;;;;;;3.07;2.90;;;1.30;99.90;;;;;;5054225;28;20184;-95
2021/12/11 07:26:56;;;;;;;0.80;0.80;;;1.30;99.90;;;;;;5047741;28;20186;-94
2021/12/11 07:29:22;;;;;;;3.00;1.43;;;1.30;99.90;;;;;;5051222;28;20449;-96
2021/12/11 07:31:49;;;;;;;1.00;1.00;;;1.30;99.90;;;;;;5023251;28;20450;-95
2021/12/11 07:34:18;;;;;;;4.17;3.80;;;1.30;99.90;;;;;;5054269;28;20254;-94
2021/12/11 07:36:45;;;;;;;0.80;0.70;;;1.30;99.90;;;;;;5053558;28;20469;-95
2021/12/11 07:39:15;;;;;;;1.00;0.90;;;1.30;99.90;;;;;;5046844;28;20995;-95
2021/12/11 07:41:40;;;;;;;0.90;0.90;;;1.30;99.90;;;;;;5046027;28;20429;-92
2021/12/11 07:44:06;;;;;;;2.13;1.33;;;1.30;99.90;;;;;;5047515;28;20450;-96
2021/12/11 07:46:34;;;;;;;0.80;0.80;;;1.30;99.90;;;;;;5060952;28;20183;-96
2021/12/11 07:49:00;;;;;;;2.03;1.67;;;1.30;99.90;;;;;;5072173;28;20188;-93
2021/12/11 07:51:27;;;;;;;1.20;1.10;;;1.40;99.90;;;;;;5036454;28;20473;-94
2021/12/11 07:53:54;;;;;;;0.80;0.80;;;1.40;99.90;;;;;;5035684;28;20437;-94
2021/12/11 07:56:22;;;;;;;0.90;0.90;;;1.50;99.90;;;;;;5048918;28;20530;-93
2021/12/11 07:58:50;;;;;;;3.40;2.33;;;1.60;99.90;;;;;;5044899;28;20441;-94
2021/12/11 08:01:19;;;;;;;3.20;3.07;;;1.70;99.90;;;;;;5030207;28;20430;-95
2021/12/11 08:03:44;;;;;;;0.90;0.90;;;1.70;99.90;;;;;;5034472;28;20441;-96
2021/12/11 08:06:11;;;;;;;0.80;0.80;;;1.70;99.90;;;;;;5052245;28;20574;-96
2021/12/11 08:08:39;;;;;;;3.00;2.80;;;1.70;99.90;;;;;;5034060;28;20186;-96
2021/12/11 08:11:11;;;;;;;1.47;1.37;;;1.70;99.90;;;;;;5065214;28;20459;-96
2021/12/11 08:13:38;;;;;;;2.10;1.83;;;1.80;99.90;;;;;;5050184;28;20437;-96
2021/12/11 08:16:04;;;;;;;0.80;0.80;;;1.70;99.90;;;;;;5034609;28;21020;-96
2021/12/11 08:18:30;;;;;;;1.17;1.10;;;1.80;99.90;;;;;;5040073;23;20496;-96
2021/12/11 08:20:56;;;;;;;1.10;1.00;;;1.90;99.90;;;;;;5056128;28;20432;-95
2021/12/11 08:23:23;;;;;;;1.87;1.77;;;1.90;99.90;;;;;;5025243;28;20344;-96
2021/12/11 08:25:50;;;;;;;1.33;1.23;;;1.90;99.90;;;;;;5052238;28;20433;-96
2021/12/11 08:28:21;;;;;;;1.00;0.90;;;2.00;99.90;;;;;;5045091;28;20472;-96
2021/12/11 08:30:49;;;;;;;1.40;1.23;;;2.00;99.90;;;;;;5056083;28;20503;-96
2021/12/11 08:33:15;;;;;;;2.00;1.90;;;2.00;99.90;;;;;;5055137;28;20444;-96
2021/12/11 08:35:41;;;;;;;0.80;0.80;;;2.00;99.90;;;;;;5048637;28;20477;-96
2021/12/11 08:38:07;;;;;;;1.00;1.00;;;2.10;99.90;;;;;;5042313;28;20179;-96
2021/12/11 08:40:38;;;;;;;0.80;0.80;;;2.10;99.90;;;;;;5050627;28;20433;-96
2021/12/11 08:43:07;;;;;;;2.30;1.80;;;2.20;99.90;;;;;;5052058;28;20493;-95
2021/12/11 08:45:45;;;;;;;1.10;1.00;;;2.20;99.90;;;;;;5050085;28;20468;-96
2021/12/11 08:48:18;;;;;;;1.53;1.43;;;2.20;99.90;;;;;;5047290;28;20554;-96
2021/12/11 08:50:47;;;;;;;1.47;1.37;;;2.20;99.90;;;;;;5039003;28;20448;-96
2021/12/11 08:53:13;;;;;;;2.70;2.50;;;2.20;99.90;;;;;;5052162;28;20488;-96
2021/12/11 08:55:44;;;;;;;0.90;0.90;;;2.30;99.90;;;;;;5038047;28;20461;-95
2021/12/11 08:58:12;;;;;;;17.50;4.13;;;2.30;99.90;;;;;;5054417;28;20414;-96
2021/12/11 09:00:57;;;;;;;2.40;2.30;;;2.30;99.90;;;;;;5056309;28;20520;-95
2021/12/11 09:03:34;;;;;;;1.73;1.27;;;2.40;99.90;;;;;;5030908;28;20463;-95
2021/12/11 09:06:05;;;;;;;0.80;0.77;;;2.40;99.90;;;;;;5053758;28;20429;-95
2021/12/11 09:08:58;;;;;;;4.83;3.33;;;2.40;99.90;;;;;;5057154;28;20475;-96
2021/12/11 09:11:38;;;;;;;1.20;1.10;;;2.40;99.90;;;;;;5056488;28;21092;-96
2021/12/11 09:14:15;;;;;;;1.57;1.47;;;2.50;99.90;;;;;;5056521;28;20495;-95
2021/12/11 09:16:49;;;;;;;0.80;0.80;;;2.50;99.90;;;;;;5043681;28;20555;-95
2021/12/11 09:19:23;;;;;;;0.90;0.90;;;2.50;99.90;;;;;;5055967;28;20603;-96
2021/12/11 09:22:22;;;;;;;0.83;0.83;;;2.50;99.90;;;;;;5058569;28;20469;-96
2021/12/11 09:24:57;;;;;;;0.80;0.80;;;2.50;99.90;;;;;;5024466;28;20433;-96
2021/12/11 09:27:40;;;;;;;2.13;2.03;;;2.50;99.90;;;;;;5052809;28;20443;-96
2021/12/11 09:30:21;;;;;;;1.30;1.20;;;2.50;99.90;;;;;;5037505;28;20445;-95
2021/12/11 09:32:55;;;;;;;0.80;0.73;;;2.50;99.90;;;;;;5049748;28;20650;-95
2021/12/11 09:35:31;;;;;;;4.77;1.23;;;2.50;99.90;;;;;;5038078;28;20556;-94
2021/12/11 09:38:05;;;;;;;1.83;1.73;;;2.60;99.90;;;;;;5056257;28;20425;-94
2021/12/11 09:40:36;;;;;;;0.80;0.70;;;2.60;99.90;;;;;;5053930;28;20462;-95
2021/12/11 09:43:02;;;;;;;0.80;0.80;;;2.60;99.90;;;;;;5053163;28;20524;-96
2021/12/11 09:45:33;;;;;;;0.80;0.80;;;2.70;99.90;;;;;;5042339;28;20483;-96
2021/12/11 09:48:04;;;;;;;0.83;0.83;;;2.80;99.90;;;;;;5029401;28;20955;-95
2021/12/11 09:50:43;;;;;;;0.80;0.80;;;2.90;99.90;;;;;;5050281;28;20448;-96
2021/12/11 09:53:11;;;;;;;1.07;0.97;;;2.90;99.90;;;;;;5046065;28;20429;-95
2021/12/11 09:55:39;;;;;;;1.10;1.00;;;3.00;99.90;;;;;;5054671;28;20465;-96
2021/12/11 09:58:09;;;;;;;0.80;0.80;;;3.00;99.90;;;;;;5054903;28;20535;-96
2021/12/11 10:00:40;;;;;;;0.80;0.80;;;3.10;99.90;;;;;;5062784;23;20489;-95
2021/12/11 10:03:08;;;;;;;1.67;1.40;;;3.20;99.90;;;;;;5057725;28;20446;-95
2021/12/11 10:05:55;;;;;;;1.00;0.90;;;3.20;99.90;;;;;;5055950;28;20432;-96
2021/12/11 10:08:32;;;;;;;0.80;0.80;;;3.20;99.90;;;;;;5045624;28;20432;-96
2021/12/11 10:11:15;;;;;;;0.80;0.77;;;3.10;99.90;;;;;;5045012;28;20433;-96
2021/12/11 10:14:07;;;;;;;0.80;0.70;;;3.10;99.90;;;;;;5029737;28;20440;-96
2021/12/11 10:16:43;;;;;;;0.80;0.80;;;3.10;99.90;;;;;;5038581;28;20482;-95
2021/12/11 10:19:11;;;;;;;1.10;1.00;;;3.00;99.90;;;;;;5034752;28;20805;-89
2021/12/11 10:21:48;;;;;;;0.80;0.80;;;3.00;99.90;;;;;;5034397;28;20429;-91
2021/12/11 10:24:18;;;;;;;0.80;0.80;;;3.00;99.90;;;;;;5051832;28;20453;-91
2021/12/11 10:26:44;;;;;;;1.10;1.00;;;3.00;99.90;;;;;;5051030;28;20467;-92
2021/12/11 10:29:12;;;;;;;0.80;0.70;;;3.00;99.90;;;;;;5055969;28;20932;-91
2021/12/11 10:31:42;;;;;;;0.80;0.80;;;3.00;99.90;;;;;;5049086;28;20945;-90
2021/12/11 10:34:11;;;;;;;0.80;0.80;;;3.00;99.90;;;;;;5049579;28;20891;-92
2021/12/11 10:36:43;;;;;;;0.90;0.90;;;3.00;99.90;;;;;;5055457;28;20481;-91
2021/12/11 10:39:11;;;;;;;1.20;1.10;;;3.00;99.90;;;;;;5049777;28;20476;-92
2021/12/11 10:41:37;;;;;;;0.83;0.83;;;3.00;99.90;;;;;;5052823;28;21155;-90
2021/12/11 10:44:13;;;;;;;1.47;1.37;;;3.10;99.90;;;;;;5048408;28;20451;-90
2021/12/11 10:46:50;;;;;;;0.80;0.73;;;3.10;99.90;;;;;;5050865;28;20487;-92
2021/12/11 10:49:17;;;;;;;0.80;0.80;;;3.50;99.90;;;;;;5054555;28;20455;-94
2021/12/11 10:51:54;;;;;;;0.80;0.80;;;3.80;99.90;;;;;;5053061;28;21244;-94
2021/12/11 10:54:22;;;;;;;2.70;1.67;;;3.70;99.90;;;;;;5052485;28;20467;-92
2021/12/11 10:56:48;;;;;;;0.90;0.90;;;3.60;99.90;;;;;;5034710;28;20491;-95
2021/12/11 10:59:18;;;;;;;0.80;0.70;;;3.50;99.90;;;;;;5032647;28;20429;-94
2021/12/11 11:01:49;;;;;;;0.80;0.80;;;3.40;99.90;;;;;;5044029;28;21157;-93
2021/12/11 11:04:26;;;;;;;2.03;1.83;;;3.40;99.90;;;;;;5047706;28;20486;-90
2021/12/11 11:06:52;;;;;;;0.80;0.70;;;3.30;99.90;;;;;;5051627;28;20967;-92
2021/12/11 11:09:19;;;;;;;0.80;0.80;;;3.40;99.90;;;;;;5053024;28;20490;-90
2021/12/11 11:11:47;;;;;;;1.13;1.03;;;3.30;99.90;;;;;;5033512;28;20595;-93
2021/12/11 11:14:14;;;;;;;1.33;1.23;;;3.30;99.90;;;;;;5039084;28;20831;-93
2021/12/11 11:16:44;;;;;;;1.00;0.90;;;3.30;99.90;;;;;;5050889;28;20939;-91
2021/12/11 11:19:09;;;;;;;0.80;0.70;;;3.30;99.90;;;;;;5049658;28;20421;-89
2021/12/11 11:21:40;;;;;;;0.80;0.77;;;3.20;99.90;;;;;;5028718;28;20456;-89
2021/12/11 11:24:10;;;;;;;4.13;2.43;;;3.20;99.90;;;;;;5029186;28;20197;-89
2021/12/11 11:26:40;;;;;;;0.80;0.60;;;3.20;99.90;;;;;;5042959;28;20448;-88
2021/12/11 11:29:15;;;;;;;0.80;0.77;;;3.30;99.90;;;;;;5049552;28;21377;-88
2021/12/11 11:31:44;;;;;;;0.80;0.80;;;3.30;99.90;;;;;;5045895;28;20813;-89
2021/12/11 11:34:14;;;;;;;1.83;1.73;;;3.30;99.90;;;;;;5038749;28;20430;-88
2021/12/11 11:36:41;;;;;;;2.27;1.57;;;3.40;99.90;;;;;;5034816;28;20582;-89
2021/12/11 11:39:12;;;;;;;1.30;1.20;;;3.40;99.90;;;;;;5020871;28;20454;-89
2021/12/11 11:41:43;;;;;;;0.80;0.77;;;3.40;99.90;;;;;;5033976;28;20441;-88
2021/12/11 11:44:10;;;;;;;1.00;0.93;;;3.40;99.90;;;;;;5037877;28;20433;-86
2021/12/11 11:46:37;;;;;;;1.40;1.30;;;3.40;99.90;;;;;;5037603;28;20799;-86
2021/12/11 11:49:05;;;;;;;1.20;1.10;;;3.50;99.90;;;;;;5041757;28;20441;-86
2021/12/11 11:51:36;;;;;;;1.63;1.53;;;3.50;99.90;;;;;;5041317;28;20787;-84
2021/12/11 11:54:04;;;;;;;1.87;1.50;;;3.50;99.90;;;;;;5048748;28;21272;-83
2021/12/11 11:56:35;;;;;;;1.30;1.10;;;3.50;99.90;;;;;;5049223;28;20488;-85
2021/12/11 11:59:03;;;;;;;0.80;0.80;;;3.60;99.90;;;;;;5040651;28;20449;-85
2021/12/11 12:01:38;;;;;;;1.13;1.03;;;3.60;99.90;;;;;;5048515;28;21000;-85
2021/12/11 12:04:04;;;;;;;1.57;1.47;;;3.60;99.90;;;;;;5048502;28;20429;-84
2021/12/11 12:06:33;;;;;;;0.80;0.80;;;3.70;99.90;;;;;;5049089;28;20445;-86
2021/12/11 12:09:05;;;;;;;0.83;0.83;;;3.70;99.90;;;;;;5044513;28;20448;-85
2021/12/11 12:11:31;;;;;;;3.43;3.23;;;3.70;99.90;;;;;;5049658;28;20453;-85
2021/12/11 12:13:58;;;;;;;1.83;1.43;;;3.70;99.90;;;;;;5048647;28;20425;-86
2021/12/11 12:16:24;;;;;;;1.10;1.00;;;3.70;99.90;;;;;;5020596;28;20847;-84
2021/12/11 12:18:50;;;;;;;2.57;2.37;;;3.70;99.90;;;;;;5024796;28;20441;-87
2021/12/11 12:21:18;;;;;;;0.97;0.87;;;3.70;99.90;;;;;;5043084;28;20182;-86
2021/12/11 12:23:44;;;;;;;0.80;0.80;;;3.70;99.90;;;;;;5030009;28;20941;-86
2021/12/11 12:26:22;;;;;;;1.93;1.80;;;3.70;99.90;;;;;;5024763;28;20441;-86
2021/12/11 12:28:48;;;;;;;0.80;0.80;;;3.70;99.90;;;;;;5035642;28;20437;-87
2021/12/11 12:31:28;;;;;;;1.70;1.60;;;3.70;99.90;;;;;;5021358;28;20463;-85
2021/12/11 12:33:55;;;;;;;0.80;0.80;;;3.70;99.90;;;;;;5023171;28;21090;-85
2021/12/11 12:36:22;;;;;;;0.90;0.90;;;3.70;99.90;;;;;;5043950;28;20485;-85
2021/12/11 12:38:48;;;;;;;1.83;1.73;;;3.70;99.90;;;;;;5048784;28;20429;-85
2021/12/11 12:41:17;;;;;;;0.80;0.70;;;3.70;99.90;;;;;;5048911;28;20437;-86
2021/12/11 12:46:17;;;;;;;0.80;0.80;;;3.70;99.90;;;;;;5048843;28;20433;-85
2021/12/11 12:48:43;;;;;;;2.10;1.50;;;3.70;99.90;;;;;;5046673;28;20448;-85
2021/12/11 12:51:13;;;;;;;0.80;0.80;;;3.70;99.90;;;;;;5048694;28;20441;-84
2021/12/11 12:53:44;;;;;;;2.27;2.17;;;3.70;99.90;;;;;;5044475;28;20199;-85
2021/12/11 12:56:14;;;;;;;0.80;0.70;;;3.70;99.90;;;;;;5044370;28;20472;-86
2021/12/11 12:58:45;;;;;;;0.80;0.70;;;3.70;99.90;;;;;;5029448;28;20945;-86
2021/12/11 13:01:16;;;;;;;3.53;3.33;;;3.70;99.90;;;;;;5049136;28;20516;-86
2021/12/11 13:03:43;;;;;;;0.80;0.67;;;3.70;99.90;;;;;;5042199;28;20997;-86
2021/12/11 13:06:14;;;;;;;1.37;1.17;;;3.70;99.90;;;;;;5037487;28;20471;-86
2021/12/11 13:08:45;;;;;;;0.80;0.80;;;3.70;99.90;;;;;;5035949;28;20433;-86
2021/12/11 13:11:15;;;;;;;0.93;0.87;;;3.70;99.90;;;;;;5028355;28;20527;-86
2021/12/11 13:13:41;;;;;;;0.80;0.80;;;3.70;99.90;;;;;;5047926;28;20441;-86
2021/12/11 13:16:13;;;;;;;0.80;0.80;;;3.70;99.90;;;;;;5047856;28;20491;-85
2021/12/11 13:18:45;;;;;;;0.80;0.80;;;3.70;99.90;;;;;;5042656;28;20194;-86
2021/12/11 13:21:37;;;;;;;0.80;0.80;;;3.70;99.90;;;;;;5045604;28;20499;-85
2021/12/11 13:24:07;;;;;;;0.80;0.70;;;3.70;99.90;;;;;;5032416;28;20482;-85
2021/12/11 13:26:35;;;;;;;3.70;3.40;;;3.70;99.90;;;;;;5048328;28;20468;-86
2021/12/11 13:29:06;;;;;;;0.80;0.80;;;3.70;99.90;;;;;;5048918;28;20806;-87
2021/12/11 13:31:43;;;;;;;0.80;0.80;;;3.70;99.90;;;;;;5030258;28;20445;-87
2021/12/11 13:34:09;;;;;;;0.80;0.80;;;3.70;99.90;;;;;;5019084;28;20979;-86